Time;durP1;ratioP1;P1;durP2;ratioP2;P2;SDS_P1;SDS_P2;PMS_P1;PMS_P2;Temp;Humidity;BMP_temperature;BMP_pressure;BME280_temperature;BME280_humidity;BME280_pressure;Samples;Min_cycle;Max_cycle;Signal;HPM_P1;HPM_P2
2021/12/01 00:02:14;;;;;;;22.00;16.90;;;10.80;91.10;;;;;;4992157;28;20026;-77
2021/12/01 00:04:40;;;;;;;15.98;12.95;;;10.80;91.10;;;;;;4990052;28;20031;-77
2021/12/01 00:07:07;;;;;;;18.35;14.48;;;10.80;91.10;;;;;;4987423;28;20696;-77
2021/12/01 00:09:33;;;;;;;17.08;13.63;;;10.80;91.10;;;;;;4980192;28;20062;-76
2021/12/01 00:11:59;;;;;;;22.88;17.77;;;10.80;91.10;;;;;;4980626;28;20680;-78
2021/12/01 00:14:25;;;;;;;13.43;11.98;;;10.80;91.10;;;;;;4982469;28;20077;-77
2021/12/01 00:16:50;;;;;;;16.27;12.30;;;10.80;91.20;;;;;;4990984;28;20713;-76
2021/12/01 00:19:16;;;;;;;12.93;10.32;;;10.90;91.20;;;;;;4996185;28;20041;-76
2021/12/01 00:21:42;;;;;;;12.50;9.80;;;10.90;91.30;;;;;;4997670;28;20029;-76
2021/12/01 00:24:07;;;;;;;14.15;12.20;;;10.90;91.30;;;;;;4992194;28;20037;-76
2021/12/01 00:26:33;;;;;;;13.68;11.48;;;10.90;91.30;;;;;;4997761;28;20022;-75
2021/12/01 00:28:58;;;;;;;10.40;8.85;;;10.90;91.30;;;;;;4980514;28;20030;-77
2021/12/01 00:31:24;;;;;;;10.93;9.15;;;10.80;91.40;;;;;;4984185;28;20030;-77
2021/12/01 00:33:50;;;;;;;9.40;8.40;;;10.90;91.40;;;;;;4970946;28;20027;-77
2021/12/01 00:36:15;;;;;;;13.82;11.80;;;10.90;91.50;;;;;;4973903;28;20035;-76
2021/12/01 00:38:42;;;;;;;8.20;7.00;;;10.90;91.60;;;;;;4978267;28;20048;-76
2021/12/01 00:41:12;;;;;;;7.55;6.75;;;10.90;91.60;;;;;;4980979;28;20027;-76
2021/12/01 00:43:41;;;;;;;7.10;6.40;;;10.90;91.60;;;;;;4972142;28;20030;-76
2021/12/01 00:46:22;;;;;;;8.27;6.97;;;10.90;91.50;;;;;;4979900;28;20465;-78
2021/12/01 00:48:48;;;;;;;5.85;5.25;;;11.00;91.60;;;;;;4977105;28;20065;-77
2021/12/01 00:51:16;;;;;;;6.95;5.80;;;11.00;91.50;;;;;;4976703;28;20061;-78
2021/12/01 00:53:42;;;;;;;6.95;5.32;;;11.00;91.60;;;;;;4979644;28;20033;-78
2021/12/01 00:56:07;;;;;;;6.15;5.55;;;11.00;91.50;;;;;;4978621;28;20014;-78
2021/12/01 00:58:33;;;;;;;5.63;5.03;;;11.00;91.50;;;;;;4976112;28;20046;-78
2021/12/01 01:01:00;;;;;;;5.25;4.63;;;11.10;91.60;;;;;;4977888;28;20122;-78
2021/12/01 01:03:27;;;;;;;4.20;3.80;;;11.00;91.50;;;;;;4978139;28;20121;-77
2021/12/01 01:05:52;;;;;;;6.53;5.78;;;11.10;91.50;;;;;;4983992;28;20026;-78
2021/12/01 01:08:18;;;;;;;5.60;4.90;;;11.00;91.50;;;;;;4981695;28;20405;-77
2021/12/01 01:19:03;;;;;;;4.03;3.60;;;11.10;91.50;;;;;;4993499;28;20090;-78
2021/12/01 01:21:31;;;;;;;;;;;11.10;91.60;;;;;;4981886;28;20026;-77
2021/12/01 01:23:58;;;;;;;4.53;4.05;;;11.10;91.50;;;;;;4985453;28;19914;-77
2021/12/01 01:26:25;;;;;;;4.60;4.20;;;11.10;91.60;;;;;;4980489;28;20393;-77
2021/12/01 01:28:51;;;;;;;5.68;4.63;;;11.10;91.60;;;;;;4980313;28;20034;-78
2021/12/01 01:31:18;;;;;;;4.90;4.40;;;11.10;91.60;;;;;;4974804;28;20045;-77
2021/12/01 01:33:44;;;;;;;5.43;4.90;;;11.10;91.60;;;;;;4987314;28;20042;-77
2021/12/01 01:36:10;;;;;;;6.82;5.45;;;11.10;91.60;;;;;;4989951;28;20089;-77
2021/12/01 01:38:36;;;;;;;6.07;5.47;;;11.10;91.60;;;;;;4974113;28;20031;-78
2021/12/01 01:41:04;;;;;;;5.15;4.55;;;11.10;91.60;;;;;;4980626;28;20019;-77
2021/12/01 01:43:29;;;;;;;5.22;4.65;;;11.10;91.60;;;;;;4973873;28;20023;-76
2021/12/01 01:45:56;;;;;;;4.97;4.47;;;11.10;91.60;;;;;;4980185;28;20398;-77
2021/12/01 01:48:28;;;;;;;5.35;4.55;;;11.10;91.60;;;;;;4982027;28;20022;-77
2021/12/01 01:50:54;;;;;;;4.78;4.25;;;11.10;91.60;;;;;;4987858;28;20018;-77
2021/12/01 01:53:22;;;;;;;6.03;4.40;;;11.10;91.60;;;;;;4993229;28;20026;-77
2021/12/01 01:55:50;;;;;;;4.25;3.67;;;11.10;91.60;;;;;;4980211;28;20030;-77
2021/12/01 01:58:17;;;;;;;3.45;3.15;;;11.10;91.60;;;;;;4985184;28;20086;-77
2021/12/01 02:01:04;;;;;;;4.05;3.35;;;11.10;91.50;;;;;;4984512;28;20086;-77
2021/12/01 02:03:29;;;;;;;4.03;3.47;;;11.10;91.60;;;;;;4975799;28;20625;-77
2021/12/01 02:05:56;;;;;;;3.78;3.28;;;11.10;91.50;;;;;;4984304;28;20054;-77
2021/12/01 02:08:29;;;;;;;4.80;3.47;;;11.00;91.50;;;;;;4981955;28;20117;-77
2021/12/01 02:10:57;;;;;;;4.07;3.30;;;11.10;91.60;;;;;;4985264;28;20019;-78
2021/12/01 02:13:22;;;;;;;3.50;3.00;;;11.00;91.50;;;;;;4985216;28;20034;-77
2021/12/01 02:15:50;;;;;;;4.15;3.25;;;11.00;91.50;;;;;;4982397;28;20049;-79
2021/12/01 02:18:15;;;;;;;3.97;2.75;;;11.00;91.50;;;;;;4978252;28;20595;-77
2021/12/01 02:20:57;;;;;;;3.13;2.83;;;11.00;91.50;;;;;;4990408;28;20022;-77
2021/12/01 02:23:23;;;;;;;3.92;3.10;;;11.00;91.50;;;;;;4978861;28;20505;-77
2021/12/01 02:25:49;;;;;;;3.75;3.10;;;11.00;91.50;;;;;;4991302;28;20057;-78
2021/12/01 02:28:14;;;;;;;5.60;4.10;;;10.90;91.50;;;;;;4992620;28;20089;-78
2021/12/01 02:30:40;;;;;;;3.63;3.10;;;10.90;91.50;;;;;;4984560;28;20035;-78
2021/12/01 02:33:06;;;;;;;3.67;3.38;;;10.90;91.50;;;;;;4983647;28;20026;-77
2021/12/01 02:35:31;;;;;;;4.45;3.70;;;10.90;91.50;;;;;;4986950;28;20026;-78
2021/12/01 02:37:57;;;;;;;4.78;4.28;;;10.90;91.50;;;;;;4985356;28;20026;-78
2021/12/01 02:40:23;;;;;;;3.10;2.80;;;10.90;91.50;;;;;;4980310;28;20097;-77
2021/12/01 02:42:48;;;;;;;3.78;3.38;;;10.90;91.50;;;;;;4984070;28;20413;-77
2021/12/01 02:45:14;;;;;;;3.08;2.78;;;10.90;91.50;;;;;;4979482;28;20465;-77
2021/12/01 02:47:39;;;;;;;3.85;3.33;;;10.80;91.40;;;;;;4986587;28;20015;-77
2021/12/01 02:50:06;;;;;;;3.58;3.00;;;10.80;91.40;;;;;;4972985;28;20461;-76
2021/12/01 02:52:35;;;;;;;3.53;3.20;;;10.80;91.40;;;;;;4982904;28;20039;-77
2021/12/01 02:55:06;;;;;;;2.88;2.67;;;10.80;91.40;;;;;;4984058;28;20414;-76
2021/12/01 02:57:46;;;;;;;3.90;3.50;;;10.80;91.40;;;;;;4979332;28;20030;-77
2021/12/01 03:00:13;;;;;;;2.72;2.53;;;10.70;91.40;;;;;;4988910;28;20039;-77
2021/12/01 03:02:39;;;;;;;3.42;2.80;;;10.70;91.40;;;;;;4979388;28;20022;-77
2021/12/01 03:05:06;;;;;;;2.60;2.40;;;10.70;91.40;;;;;;4988817;28;20406;-77
2021/12/01 03:07:33;;;;;;;3.03;2.72;;;10.60;91.40;;;;;;4988975;28;20025;-77
2021/12/01 03:09:59;;;;;;;3.20;2.90;;;10.60;91.40;;;;;;4981255;28;20493;-77
2021/12/01 03:12:32;;;;;;;3.25;2.53;;;10.60;91.50;;;;;;4986655;28;20027;-77
2021/12/01 03:14:59;;;;;;;2.60;2.40;;;10.60;91.50;;;;;;4984492;28;20037;-77
2021/12/01 03:17:27;;;;;;;2.92;2.60;;;10.60;91.50;;;;;;4982865;28;20023;-77
2021/12/01 03:19:53;;;;;;;3.55;2.97;;;10.50;91.40;;;;;;4976736;28;20034;-78
2021/12/01 03:22:19;;;;;;;2.70;2.38;;;10.50;91.40;;;;;;4978910;28;20109;-77
2021/12/01 03:24:44;;;;;;;2.25;2.05;;;10.50;91.40;;;;;;4984645;28;20556;-77
2021/12/01 03:27:10;;;;;;;3.17;2.55;;;10.50;91.40;;;;;;4978245;28;20058;-77
2021/12/01 03:29:35;;;;;;;3.13;2.83;;;10.50;91.70;;;;;;4982116;28;20486;-77
2021/12/01 03:32:01;;;;;;;2.33;2.05;;;10.50;91.40;;;;;;4984138;28;20490;-77
2021/12/01 03:34:27;;;;;;;2.50;2.30;;;10.40;91.40;;;;;;4979489;28;20552;-77
2021/12/01 03:36:52;;;;;;;3.00;2.50;;;10.40;91.30;;;;;;4977301;28;20026;-77
2021/12/01 03:39:18;;;;;;;2.75;2.55;;;10.40;91.40;;;;;;4974162;28;20631;-78
2021/12/01 03:41:43;;;;;;;2.17;2.00;;;10.30;91.30;;;;;;4988560;28;20046;-77
2021/12/01 03:44:09;;;;;;;3.03;2.13;;;10.30;91.30;;;;;;4988024;28;20500;-77
2021/12/01 03:46:35;;;;;;;2.47;2.25;;;10.40;91.40;;;;;;4980263;28;20193;-78
2021/12/01 03:49:00;;;;;;;2.38;2.17;;;10.30;91.30;;;;;;4979674;28;20019;-77
2021/12/01 03:51:26;;;;;;;2.10;2.00;;;10.30;91.30;;;;;;4972333;28;20038;-78
2021/12/01 03:53:52;;;;;;;3.08;2.20;;;10.30;91.30;;;;;;4981890;28;20026;-80
2021/12/01 03:56:19;;;;;;;2.38;2.17;;;10.30;91.30;;;;;;4981819;28;20367;-79
2021/12/01 03:58:46;;;;;;;2.67;2.38;;;10.30;91.30;;;;;;4970967;28;20042;-79
2021/12/01 04:01:11;;;;;;;3.88;2.72;;;10.40;91.30;;;;;;4978757;28;20033;-78
2021/12/01 04:03:38;;;;;;;3.40;2.85;;;10.30;91.20;;;;;;4977925;28;20030;-79
2021/12/01 04:06:03;;;;;;;2.17;1.98;;;10.30;91.20;;;;;;4984490;28;20026;-78
2021/12/01 04:08:29;;;;;;;3.33;2.67;;;10.20;91.20;;;;;;4987524;28;20021;-77
2021/12/01 04:10:54;;;;;;;3.15;2.80;;;10.30;91.20;;;;;;4989334;28;20029;-77
2021/12/01 04:13:20;;;;;;;3.03;2.58;;;10.30;91.10;;;;;;4973409;28;20034;-78
2021/12/01 04:15:46;;;;;;;3.17;2.88;;;10.20;91.10;;;;;;4971113;28;20078;-78
2021/12/01 04:18:11;;;;;;;2.90;2.65;;;10.20;91.10;;;;;;4980734;28;20113;-78
2021/12/01 04:20:37;;;;;;;3.13;2.67;;;10.20;91.10;;;;;;4979715;28;20018;-78
2021/12/01 04:23:03;;;;;;;2.70;2.50;;;10.10;91.00;;;;;;4984216;28;20556;-78
2021/12/01 04:25:29;;;;;;;2.60;2.40;;;10.20;91.30;;;;;;4971771;28;20027;-78
2021/12/01 04:27:55;;;;;;;2.88;2.58;;;10.10;91.00;;;;;;4976275;28;20023;-78
2021/12/01 04:30:22;;;;;;;2.60;2.40;;;10.10;91.00;;;;;;4982826;28;20038;-79
2021/12/01 04:32:49;;;;;;;2.85;2.60;;;10.10;91.00;;;;;;4974172;28;20093;-79
2021/12/01 04:35:17;;;;;;;2.63;2.42;;;10.10;91.00;;;;;;4974748;28;20039;-78
2021/12/01 04:37:43;;;;;;;3.72;2.53;;;10.10;90.90;;;;;;4975547;28;20022;-78
2021/12/01 04:40:09;;;;;;;3.38;3.08;;;10.10;90.90;;;;;;4980206;28;20121;-79
2021/12/01 04:42:35;;;;;;;3.20;2.90;;;10.20;91.20;;;;;;4976385;28;20130;-78
2021/12/01 04:45:02;;;;;;;3.25;2.53;;;10.10;90.70;;;;;;4985102;28;20035;-78
2021/12/01 04:47:36;;;;;;;3.45;3.15;;;10.10;90.70;;;;;;4980472;28;20399;-79
2021/12/01 04:50:02;;;;;;;3.00;2.70;;;10.10;90.70;;;;;;4980475;28;20026;-78
2021/12/01 04:52:28;;;;;;;4.00;3.33;;;10.10;90.70;;;;;;4983470;28;20105;-78
2021/12/01 04:54:54;;;;;;;3.05;2.25;;;10.10;90.60;;;;;;4976094;28;20169;-78
2021/12/01 04:57:19;;;;;;;3.17;2.70;;;10.10;90.60;;;;;;4988032;28;20033;-77
2021/12/01 04:59:45;;;;;;;2.88;2.58;;;10.10;90.60;;;;;;4976944;28;20093;-78
2021/12/01 05:02:11;;;;;;;3.55;2.97;;;10.10;90.60;;;;;;4984581;28;20114;-78
2021/12/01 05:04:36;;;;;;;3.33;2.97;;;10.10;90.60;;;;;;4981388;28;20439;-77
2021/12/01 05:07:02;;;;;;;3.60;3.10;;;10.10;90.50;;;;;;4987618;28;20381;-77
2021/12/01 05:09:28;;;;;;;3.20;2.90;;;10.10;90.50;;;;;;4991878;28;20113;-78
2021/12/01 05:11:53;;;;;;;3.60;3.03;;;10.00;90.40;;;;;;4977529;28;20379;-78
2021/12/01 05:14:20;;;;;;;4.28;2.72;;;10.10;90.40;;;;;;4980778;28;20493;-77
2021/12/01 05:16:46;;;;;;;3.92;3.47;;;10.00;90.40;;;;;;4979338;28;20581;-77
2021/12/01 05:19:11;;;;;;;4.55;3.30;;;10.00;90.70;;;;;;4992374;28;20122;-77
2021/12/01 05:21:39;;;;;;;3.50;3.20;;;10.00;90.40;;;;;;4987360;28;20026;-77
2021/12/01 05:24:05;;;;;;;4.07;3.67;;;9.90;90.50;;;;;;4990235;28;20031;-77
2021/12/01 05:26:31;;;;;;;3.47;3.13;;;9.90;90.50;;;;;;4979691;28;20149;-78
2021/12/01 05:28:57;;;;;;;3.72;3.42;;;9.90;90.50;;;;;;4979126;28;20118;-78
2021/12/01 05:31:22;;;;;;;4.07;3.67;;;9.90;90.60;;;;;;4979186;28;20042;-78
2021/12/01 05:33:48;;;;;;;3.60;3.30;;;9.80;90.60;;;;;;4973690;28;20035;-78
2021/12/01 05:36:14;;;;;;;4.50;3.20;;;9.80;90.60;;;;;;4978948;28;20525;-78
2021/12/01 05:38:40;;;;;;;4.10;3.38;;;9.80;90.60;;;;;;4981277;28;20030;-78
2021/12/01 05:41:05;;;;;;;3.58;3.10;;;9.70;90.60;;;;;;4979821;28;20402;-76
2021/12/01 05:43:31;;;;;;;7.78;4.22;;;9.80;90.70;;;;;;4980116;28;20077;-76
2021/12/01 05:45:57;;;;;;;2.78;2.58;;;9.70;90.70;;;;;;4981917;28;20022;-78
2021/12/01 05:48:22;;;;;;;3.10;2.60;;;9.70;90.70;;;;;;4974015;28;20046;-77
2021/12/01 05:50:48;;;;;;;2.40;2.20;;;9.70;90.70;;;;;;4984151;28;20053;-77
2021/12/01 05:53:14;;;;;;;3.70;2.58;;;9.70;90.80;;;;;;4987117;28;20524;-77
2021/12/01 05:55:40;;;;;;;2.90;2.20;;;9.70;90.80;;;;;;4976698;28;20105;-78
2021/12/01 05:58:06;;;;;;;3.00;2.60;;;9.80;90.80;;;;;;4983957;28;20042;-77
2021/12/01 06:00:32;;;;;;;2.72;2.30;;;9.70;90.70;;;;;;4988295;28;20030;-77
2021/12/01 06:02:57;;;;;;;3.25;2.22;;;9.70;90.80;;;;;;4988350;28;20066;-77
2021/12/01 06:05:23;;;;;;;2.10;1.90;;;9.70;90.80;;;;;;4982819;28;20516;-78
2021/12/01 06:07:49;;;;;;;2.20;2.00;;;9.70;90.80;;;;;;4977199;28;20054;-77
2021/12/01 06:10:17;;;;;;;2.03;1.83;;;9.70;90.80;;;;;;4987455;28;20169;-78
2021/12/01 06:12:44;;;;;;;3.17;2.60;;;9.70;90.80;;;;;;4985865;28;20372;-77
2021/12/01 06:15:11;;;;;;;4.35;2.40;;;9.70;90.80;;;;;;4985391;28;20034;-76
2021/12/01 06:17:37;;;;;;;3.50;2.25;;;9.70;90.80;;;;;;4987662;28;20396;-82
2021/12/01 06:20:04;;;;;;;2.75;2.47;;;9.60;90.80;;;;;;4978370;28;20114;-82
2021/12/01 06:22:30;;;;;;;2.38;2.17;;;9.60;90.80;;;;;;4980836;28;20057;-81
2021/12/01 06:24:56;;;;;;;3.13;2.40;;;9.60;90.90;;;;;;4980830;28;20477;-82
2021/12/01 06:27:22;;;;;;;2.45;1.80;;;9.60;90.90;;;;;;4982058;28;20023;-82
2021/12/01 06:29:48;;;;;;;2.05;1.85;;;9.60;90.90;;;;;;4984081;28;20080;-84
2021/12/01 06:32:14;;;;;;;1.60;1.50;;;9.60;90.90;;;;;;4981778;28;20026;-84
2021/12/01 06:34:40;;;;;;;3.55;1.90;;;9.60;90.90;;;;;;4977963;28;20034;-76
2021/12/01 06:37:05;;;;;;;1.85;1.70;;;9.60;90.90;;;;;;4990017;28;20105;-76
2021/12/01 06:39:31;;;;;;;2.40;1.80;;;9.60;91.00;;;;;;4988602;28;20039;-75
2021/12/01 06:41:56;;;;;;;1.60;1.30;;;9.60;90.90;;;;;;4975433;28;20389;-75
2021/12/01 06:44:24;;;;;;;1.80;1.70;;;9.50;90.90;;;;;;4982517;28;20532;-75
2021/12/01 06:46:50;;;;;;;1.70;1.60;;;9.60;90.90;;;;;;4982435;28;20062;-75
2021/12/01 06:49:16;;;;;;;1.70;1.60;;;9.50;90.90;;;;;;4983555;28;20060;-76
2021/12/01 06:51:41;;;;;;;2.72;1.65;;;9.50;91.00;;;;;;4981398;28;20023;-76
2021/12/01 06:54:07;;;;;;;1.75;1.58;;;9.50;91.00;;;;;;4974763;28;20023;-76
2021/12/01 06:56:32;;;;;;;2.00;1.80;;;9.50;91.00;;;;;;4978436;28;20034;-76
2021/12/01 06:58:58;;;;;;;2.13;1.70;;;9.50;91.00;;;;;;4975235;28;20406;-76
2021/12/01 07:01:24;;;;;;;2.85;2.03;;;9.50;91.00;;;;;;4978563;28;20045;-77
2021/12/01 07:03:49;;;;;;;1.75;1.63;;;9.50;91.10;;;;;;4973513;28;20031;-77
2021/12/01 07:06:15;;;;;;;1.67;1.50;;;9.50;91.10;;;;;;4976300;28;20101;-77
2021/12/01 07:08:40;;;;;;;1.58;1.48;;;9.50;91.10;;;;;;4980423;28;20517;-77
2021/12/01 07:11:06;;;;;;;1.90;1.80;;;9.50;91.10;;;;;;4974323;28;20026;-81
2021/12/01 07:13:33;;;;;;;1.70;1.30;;;9.50;91.10;;;;;;4981212;28;20681;-76
2021/12/01 07:16:00;;;;;;;1.70;1.60;;;9.60;91.20;;;;;;4983015;28;20018;-76
2021/12/01 07:18:26;;;;;;;99.13;16.30;;;9.50;91.20;;;;;;4976647;28;20539;-76
2021/12/01 07:20:52;;;;;;;4.35;2.00;;;9.60;91.20;;;;;;4981974;28;20469;-76
2021/12/01 07:23:18;;;;;;;2.67;1.58;;;9.50;91.20;;;;;;4984449;28;20034;-76
2021/12/01 07:25:43;;;;;;;1.48;1.38;;;9.60;91.20;;;;;;4982046;28;20022;-76
2021/12/01 07:28:09;;;;;;;6.10;1.50;;;9.60;91.20;;;;;;4990776;28;20524;-76
2021/12/01 07:30:35;;;;;;;35.72;7.20;;;9.60;91.20;;;;;;4984580;28;20068;-76
2021/12/01 07:33:01;;;;;;;28.10;5.72;;;9.60;91.20;;;;;;4988009;28;20074;-76
2021/12/01 07:35:27;;;;;;;32.08;4.85;;;9.60;91.20;;;;;;4985963;28;20054;-76
2021/12/01 07:37:53;;;;;;;5.80;2.38;;;9.70;91.20;;;;;;4985893;28;20119;-77
2021/12/01 07:40:19;;;;;;;2.90;1.90;;;9.60;91.20;;;;;;4984813;28;20549;-77
2021/12/01 07:42:45;;;;;;;64.47;7.82;;;9.70;91.20;;;;;;4990730;28;20018;-76
2021/12/01 07:45:11;;;;;;;37.63;4.50;;;9.70;91.20;;;;;;4988602;28;20033;-77
2021/12/01 07:47:37;;;;;;;28.77;5.15;;;9.70;91.20;;;;;;4995715;28;20033;-77
2021/12/01 07:50:05;;;;;;;9.63;2.90;;;9.70;91.20;;;;;;4983722;28;20094;-77
2021/12/01 07:52:32;;;;;;;8.25;2.55;;;9.70;91.20;;;;;;4986908;28;20420;-77
2021/12/01 07:54:58;;;;;;;4.78;2.67;;;9.80;91.20;;;;;;4991539;28;20161;-76
2021/12/01 07:57:23;;;;;;;3.20;2.35;;;9.70;91.50;;;;;;4988903;28;20157;-77
2021/12/01 07:59:49;;;;;;;7.78;2.60;;;9.70;91.20;;;;;;4990132;28;20404;-76
2021/12/01 08:02:14;;;;;;;2.90;2.60;;;9.70;91.20;;;;;;4997383;28;20026;-76
2021/12/01 08:04:40;;;;;;;2.60;2.40;;;9.70;91.20;;;;;;4987795;28;20030;-78
2021/12/01 08:07:05;;;;;;;2.72;2.50;;;9.70;91.30;;;;;;4985021;28;20105;-77
2021/12/01 08:09:31;;;;;;;3.97;2.70;;;9.80;91.30;;;;;;4983061;28;20035;-77
2021/12/01 08:11:56;;;;;;;5.65;3.00;;;9.70;91.30;;;;;;4987589;28;20145;-77
2021/12/01 08:14:23;;;;;;;4.85;3.92;;;9.80;91.30;;;;;;4993439;28;20033;-76
2021/12/01 08:16:48;;;;;;;3.65;2.90;;;9.80;91.30;;;;;;4991418;28;20025;-77
2021/12/01 08:19:15;;;;;;;3.97;3.35;;;9.80;91.30;;;;;;4986647;28;20050;-77
2021/12/01 08:21:40;;;;;;;7.32;4.95;;;9.90;91.30;;;;;;4992726;28;20026;-75
2021/12/01 08:24:06;;;;;;;7.15;4.13;;;9.90;91.30;;;;;;4991218;28;20026;-76
2021/12/01 08:26:32;;;;;;;5.25;4.22;;;9.90;91.30;;;;;;4994826;28;20030;-76
2021/12/01 08:28:57;;;;;;;4.80;4.30;;;9.90;91.30;;;;;;4992948;28;20548;-77
2021/12/01 08:31:23;;;;;;;5.07;4.30;;;9.90;91.30;;;;;;4984379;28;20762;-78
2021/12/01 08:33:49;;;;;;;4.82;4.32;;;10.00;91.30;;;;;;4983243;28;20022;-78
2021/12/01 08:36:16;;;;;;;5.10;4.30;;;10.00;91.30;;;;;;4978009;28;20097;-81
2021/12/01 08:38:42;;;;;;;6.05;5.45;;;10.00;91.30;;;;;;4979061;28;20026;-80
2021/12/01 08:41:08;;;;;;;5.15;4.40;;;10.00;91.20;;;;;;4989172;28;20046;-79
2021/12/01 08:43:35;;;;;;;297.48;39.08;;;10.00;91.20;;;;;;4986199;28;20653;-78
2021/12/01 08:46:03;;;;;;;15.63;5.97;;;10.10;91.20;;;;;;4980100;28;20026;-78
2021/12/01 08:48:29;;;;;;;81.10;13.35;;;10.00;91.20;;;;;;4992110;28;20101;-83
2021/12/01 08:50:56;;;;;;;27.05;8.48;;;10.00;91.20;;;;;;4984467;28;20487;-79
2021/12/01 08:53:23;;;;;;;6.25;5.30;;;10.10;91.20;;;;;;4984727;28;20037;-78
2021/12/01 08:55:49;;;;;;;43.90;10.30;;;10.10;91.20;;;;;;4982784;28;20096;-80
2021/12/01 08:58:16;;;;;;;12.88;6.30;;;10.10;91.40;;;;;;4989407;28;20054;-81
2021/12/01 09:00:46;;;;;;;49.97;8.73;;;10.20;91.10;;;;;;4986789;28;20469;-78
2021/12/01 09:03:12;;;;;;;39.65;8.27;;;10.20;91.10;;;;;;4990127;28;20395;-80
2021/12/01 09:05:39;;;;;;;7.38;5.15;;;10.20;91.10;;;;;;4987126;28;20114;-80
2021/12/01 09:08:05;;;;;;;11.63;5.47;;;10.20;91.00;;;;;;4985896;28;20046;-79
2021/12/01 09:10:31;;;;;;;5.38;4.20;;;10.20;91.00;;;;;;4989520;28;20046;-81
2021/12/01 09:12:58;;;;;;;7.07;5.00;;;10.20;91.10;;;;;;4984995;28;20449;-79
2021/12/01 09:15:24;;;;;;;8.77;5.57;;;10.20;91.10;;;;;;4990962;28;20046;-77
2021/12/01 09:17:49;;;;;;;4.90;4.20;;;10.20;91.00;;;;;;4991692;28;20093;-80
2021/12/01 09:20:15;;;;;;;7.03;4.43;;;10.20;91.10;;;;;;4988105;28;20042;-79
2021/12/01 09:22:41;;;;;;;5.72;4.07;;;10.20;91.00;;;;;;4987853;28;20539;-75
2021/12/01 09:25:07;;;;;;;4.93;3.28;;;10.20;91.00;;;;;;4985916;28;20563;-80
2021/12/01 09:27:33;;;;;;;4.22;2.97;;;10.20;91.00;;;;;;4981434;28;20045;-79
2021/12/01 09:29:58;;;;;;;4.70;2.88;;;10.20;90.90;;;;;;4992930;28;20486;-82
2021/12/01 09:32:24;;;;;;;5.15;2.55;;;10.10;90.80;;;;;;4985906;28;20034;-82
2021/12/01 09:34:50;;;;;;;4.95;2.50;;;10.10;90.80;;;;;;4986927;28;20030;-79
2021/12/01 09:37:16;;;;;;;3.55;2.30;;;10.10;90.80;;;;;;4971464;28;20478;-79
2021/12/01 09:39:43;;;;;;;4.13;2.22;;;10.10;90.80;;;;;;4982016;28;20034;-79
2021/12/01 09:42:10;;;;;;;5.53;2.10;;;10.10;90.80;;;;;;4987325;28;20085;-79
2021/12/01 09:44:37;;;;;;;5.30;2.10;;;10.00;90.70;;;;;;4987650;28;20080;-77
2021/12/01 09:47:03;;;;;;;7.68;2.22;;;10.10;90.70;;;;;;4988717;28;20027;-80
2021/12/01 09:49:29;;;;;;;4.28;1.73;;;10.00;90.60;;;;;;4976515;28;20019;-78
2021/12/01 09:51:55;;;;;;;4.65;2.10;;;10.00;90.60;;;;;;4986020;28;20026;-79
2021/12/01 09:54:20;;;;;;;4.22;1.90;;;10.00;90.60;;;;;;4969121;28;20481;-75
2021/12/01 09:56:46;;;;;;;5.50;1.88;;;10.10;90.60;;;;;;4982895;28;20022;-77
2021/12/01 09:59:12;;;;;;;3.65;1.50;;;10.00;90.50;;;;;;4982582;28;20108;-77
2021/12/01 10:01:37;;;;;;;3.97;1.80;;;10.00;90.50;;;;;;4986177;28;20054;-78
2021/12/01 10:04:03;;;;;;;4.95;2.00;;;10.00;90.50;;;;;;4977069;28;20035;-79
2021/12/01 10:06:29;;;;;;;3.45;1.50;;;10.10;90.50;;;;;;4984972;28;20030;-80
2021/12/01 10:08:56;;;;;;;3.08;1.60;;;10.10;90.40;;;;;;4984999;28;20513;-81
2021/12/01 10:11:23;;;;;;;5.30;1.70;;;10.00;90.40;;;;;;4976486;28;20027;-77
2021/12/01 10:13:52;;;;;;;4.03;1.35;;;10.10;90.40;;;;;;4983126;28;20109;-77
2021/12/01 10:16:19;;;;;;;4.20;1.70;;;10.20;90.40;;;;;;4983572;28;20042;-77
2021/12/01 10:18:50;;;;;;;6.65;1.88;;;10.20;90.30;;;;;;4988146;28;20388;-80
2021/12/01 10:21:34;;;;;;;5.32;1.50;;;10.20;90.20;;;;;;4990290;28;20023;-76
2021/12/01 10:24:07;;;;;;;4.97;1.33;;;10.20;90.10;;;;;;4991135;28;20288;-80
2021/12/01 10:26:37;;;;;;;3.92;1.40;;;10.20;90.10;;;;;;4988400;28;20034;-79
2021/12/01 10:29:09;;;;;;;4.57;1.60;;;10.10;90.00;;;;;;4997951;28;20032;-79
2021/12/01 10:31:38;;;;;;;5.25;1.90;;;10.10;90.00;;;;;;4996021;28;20033;-79
2021/12/01 10:34:16;;;;;;;3.25;1.25;;;10.10;90.00;;;;;;4993856;28;20047;-80
2021/12/01 10:36:42;;;;;;;5.78;1.38;;;10.10;90.00;;;;;;4994001;28;20061;-79
2021/12/01 10:39:07;;;;;;;4.38;1.58;;;10.10;89.60;;;;;;4992432;28;20061;-80
2021/12/01 10:41:36;;;;;;;3.67;1.15;;;10.10;89.60;;;;;;4990993;28;20567;-78
2021/12/01 10:44:11;;;;;;;4.15;1.25;;;10.00;89.40;;;;;;4994179;28;20032;-80
2021/12/01 10:46:47;;;;;;;4.45;1.17;;;10.00;89.60;;;;;;4996191;28;20032;-79
2021/12/01 10:49:13;;;;;;;3.67;1.17;;;10.10;89.70;;;;;;4988310;28;20520;-78
2021/12/01 10:51:40;;;;;;;3.33;1.10;;;10.10;89.50;;;;;;4980985;28;20027;-76
2021/12/01 10:54:18;;;;;;;4.43;1.00;;;10.00;89.30;;;;;;4982456;28;20030;-77
2021/12/01 10:56:44;;;;;;;2.15;1.00;;;10.00;89.30;;;;;;4972296;28;20035;-76
2021/12/01 10:59:12;;;;;;;3.17;0.98;;;10.10;89.40;;;;;;4984346;28;20042;-77
2021/12/01 11:01:38;;;;;;;2.22;1.00;;;10.00;89.30;;;;;;4980194;28;20022;-77
2021/12/01 11:04:05;;;;;;;2.85;1.10;;;10.00;89.30;;;;;;4988577;28;20109;-78
2021/12/01 11:06:34;;;;;;;6.13;1.35;;;10.00;89.30;;;;;;4978822;28;20026;-78
2021/12/01 11:09:01;;;;;;;3.45;1.20;;;10.00;89.10;;;;;;4982929;28;20026;-76
2021/12/01 11:11:43;;;;;;;2.75;1.10;;;10.00;89.10;;;;;;4985711;28;20049;-76
2021/12/01 11:14:10;;;;;;;3.95;1.33;;;10.00;89.10;;;;;;4983734;28;20030;-78
2021/12/01 11:16:38;;;;;;;1.90;0.95;;;10.00;89.00;;;;;;4978978;28;20521;-78
2021/12/01 11:19:03;;;;;;;3.08;0.90;;;10.00;89.00;;;;;;4979014;28;20034;-79
2021/12/01 11:21:29;;;;;;;2.25;1.02;;;10.00;89.00;;;;;;4985379;28;20030;-80
2021/12/01 11:24:00;;;;;;;2.42;1.10;;;9.90;88.80;;;;;;4980578;28;20027;-78
2021/12/01 11:26:31;;;;;;;4.25;1.42;;;10.00;88.90;;;;;;4975447;28;20482;-78
2021/12/01 11:29:06;;;;;;;3.13;1.20;;;9.90;88.90;;;;;;4980296;28;20030;-78
2021/12/01 11:31:42;;;;;;;2.67;1.20;;;10.00;88.80;;;;;;4981885;28;20031;-80
2021/12/01 11:34:18;;;;;;;3.75;1.17;;;10.00;88.60;;;;;;4980389;28;20085;-78
2021/12/01 11:36:50;;;;;;;5.35;1.50;;;9.90;88.50;;;;;;4982556;28;20031;-81
2021/12/01 11:39:26;;;;;;;3.43;1.50;;;9.90;88.40;;;;;;4982530;28;20401;-79
2021/12/01 11:41:53;;;;;;;3.53;1.20;;;9.80;88.10;;;;;;4984208;28;20269;-79
2021/12/01 11:44:21;;;;;;;3.45;1.20;;;9.90;88.20;;;;;;4981633;28;20565;-78
2021/12/01 11:46:49;;;;;;;6.13;1.58;;;9.90;88.10;;;;;;4989138;28;20101;-79
2021/12/01 11:49:17;;;;;;;5.65;1.40;;;9.80;87.90;;;;;;4984918;28;20057;-79
2021/12/01 11:52:00;;;;;;;4.53;1.30;;;9.80;87.90;;;;;;4979103;28;20040;-78
2021/12/01 11:54:27;;;;;;;4.43;1.35;;;9.80;87.80;;;;;;4981455;28;20022;-79
2021/12/01 11:57:07;;;;;;;3.30;1.20;;;9.80;87.70;;;;;;4976224;28;20023;-79
2021/12/01 11:59:44;;;;;;;4.30;1.30;;;9.80;87.80;;;;;;4983456;28;20739;-79
2021/12/01 12:02:15;;;;;;;3.63;1.50;;;9.80;87.70;;;;;;4977796;28;20027;-77
2021/12/01 12:04:44;;;;;;;4.18;1.08;;;9.80;87.70;;;;;;4980117;28;20034;-77
2021/12/01 12:07:25;;;;;;;3.90;1.38;;;9.80;87.60;;;;;;4977531;28;20023;-79
2021/12/01 12:10:19;;;;;;;5.85;1.30;;;9.80;87.50;;;;;;4981082;28;20022;-79
2021/12/01 12:12:46;;;;;;;2.60;1.10;;;9.80;87.50;;;;;;4976026;28;20453;-80
2021/12/01 12:15:37;;;;;;;4.20;1.20;;;9.80;87.50;;;;;;4980072;28;20026;-79
2021/12/01 12:18:04;;;;;;;4.97;1.40;;;9.80;87.40;;;;;;4978687;28;20042;-80
2021/12/01 12:20:34;;;;;;;5.70;1.70;;;9.90;87.50;;;;;;4979695;28;20050;-78
2021/12/01 12:23:08;;;;;;;4.95;1.30;;;9.90;87.40;;;;;;4978696;28;20053;-80
2021/12/01 12:25:49;;;;;;;3.33;1.25;;;9.90;87.40;;;;;;4983519;28;20066;-78
2021/12/01 12:28:35;;;;;;;6.75;1.73;;;10.00;87.30;;;;;;4978736;28;20027;-78
2021/12/01 12:31:18;;;;;;;5.20;1.70;;;9.90;87.10;;;;;;4980702;28;20034;-79
2021/12/01 12:33:59;;;;;;;6.78;1.55;;;9.90;87.00;;;;;;4978680;28;20110;-79
2021/12/01 12:36:58;;;;;;;3.53;1.35;;;9.90;87.00;;;;;;4980817;28;20089;-79
2021/12/01 12:39:29;;;;;;;3.78;1.27;;;9.90;87.10;;;;;;4982200;28;20058;-80
2021/12/01 12:41:54;;;;;;;6.53;1.83;;;10.00;87.00;;;;;;4981993;28;20026;-80
2021/12/01 12:44:45;;;;;;;3.88;1.40;;;10.00;86.90;;;;;;4978951;28;20507;-78
2021/12/01 12:47:19;;;;;;;4.38;1.35;;;10.00;86.70;;;;;;4977079;28;20035;-79
2021/12/01 12:49:55;;;;;;;5.65;1.45;;;10.00;86.30;;;;;;4981235;28;20034;-79
2021/12/01 12:53:13;;;;;;;3.58;1.38;;;10.00;86.30;;;;;;4982487;28;20721;-79
2021/12/01 12:55:42;;;;;;;4.97;1.40;;;10.00;86.30;;;;;;4983838;28;20084;-81
2021/12/01 12:58:10;;;;;;;6.75;1.80;;;10.00;86.10;;;;;;4982658;28;20214;-80
2021/12/01 13:00:52;;;;;;;5.22;1.42;;;10.00;86.00;;;;;;4975720;28;20481;-79